METAR AND TAF INFORMATION
METAR FOR OOMS
ADDS - METARS form results

(1842 UTC 26 April 2018)
Data provider http://aviationweather.gov/adds/metars/
 
METAR text: OOMS 261750Z 23003KT 160V250 8000 NSC 34/11 Q1007 NOSIG
Conditions at: OOMS (SEEB INTL/MUSCAT, OM) observed 1750 UTC 26 April 2018
Temperature: 34.0°C (93°F)
Dewpoint: 11.0°C (52°F) [RH = 25%]
Pressure (altimeter): 29.73 inches Hg (1007.0 mb)
Winds: from the SW (230 degrees) at 3 MPH (3 knots; 1.6 m/s)
Visibility: 5 miles (8 km)
Ceiling: at least 12,000 feet AGL
Clouds: sky clear below 12,000 feet AGL
Weather: no significant weather observed at this time

Forecast for: OOMS (SEEB INTL/MUSCAT, OM)
Text: TAF OOMS 261700Z 2618/2724 24005KT 8000 NSC
Forecast period: 1800 UTC 26 April 2018 to 0600 UTC 27 April 2018
Forecast type: FROM: standard forecast or significant change
Winds: from the WSW (240 degrees) at 6 MPH (5 knots; 2.6 m/s)
Visibility: 5 miles (8 km)
Clouds: not forecast
Weather: no significant weather forecast for this period
Forecast for: OOMS (SEEB INTL/MUSCAT, OM)
Text: TAF OOMS 261700Z 2618/2724 24005KT 8000 NSC
Forecast period: 1800 UTC 26 April 2018 to 0600 UTC 27 April 2018
Forecast type: FROM: standard forecast or significant change
Winds: from the WSW (240 degrees) at 6 MPH (5 knots; 2.6 m/s)
Visibility: 5 miles (8 km)
Clouds: not forecast
Weather: no significant weather forecast for this period
Forecast for: OOMS (SEEB INTL/MUSCAT, OM)
Text: TAF OOMS 261700Z 2618/2724 24005KT 8000 NSC
Forecast period: 0600 to 1700 UTC 27 April 2018
Forecast type: BECOMING: Conditions expected to become as follows by 0800 UTC 27 April 2018
Winds: from the NE (40 degrees) at 12 MPH (10 knots; 5.2 m/s)
Visibility: 5 miles (8 km)
Weather: no significant weather forecast for this period
Forecast for: OOMS (SEEB INTL/MUSCAT, OM)
Text: TAF OOMS 261700Z 2618/2724 24005KT 8000 NSC
Forecast period: 0600 to 1700 UTC 27 April 2018
Forecast type: BECOMING: Conditions expected to become as follows by 0800 UTC 27 April 2018
Winds: from the NE (40 degrees) at 12 MPH (10 knots; 5.2 m/s)
Visibility: 5 miles (8 km)
Weather: no significant weather forecast for this period
Forecast for: OOMS (SEEB INTL/MUSCAT, OM)
Text: TAF OOMS 261700Z 2618/2724 24005KT 8000 NSC
Forecast period: 1700 UTC 27 April 2018 to 0000 UTC 28 April 2018
Forecast type: BECOMING: Conditions expected to become as follows by 1900 UTC 27 April 2018
Winds: from the SSW (210 degrees) at 12 MPH (10 knots; 5.2 m/s)
Visibility: 5 miles (8 km)
Weather: no significant weather forecast for this period
Forecast for: OOMS (SEEB INTL/MUSCAT, OM)
Text: TAF OOMS 261700Z 2618/2724 24005KT 8000 NSC
Forecast period: 1700 UTC 27 April 2018 to 0000 UTC 28 April 2018
Forecast type: BECOMING: Conditions expected to become as follows by 1900 UTC 27 April 2018
Winds: from the SSW (210 degrees) at 12 MPH (10 knots; 5.2 m/s)
Visibility: 5 miles (8 km)
Weather: no significant weather forecast for this period

 AIRPORT MAP

 RUNWAY INFORMATION
Runway 02 Runway length 2461 ft Runway width 98 ft
Runway elevation 0 ft Runway displaced threshold 0 ft Runway heading 19
Runway 20 Runway length 2461 ft Runway width 98 ft
Runway elevation 0 ft Runway displaced threshold 0 ft Runway heading 199
Runway 08 Runway length 11775 ft Runway width 148 ft
Runway elevation 48 ft Runway displaced threshold 1375 ft Runway heading 85
Runway 26 Runway length 11775 ft Runway width 148 ft
Runway elevation 26 ft Runway displaced threshold 0 ft Runway heading 265

 AIRPORT FREQUENCIES
Type A/D Name APP Frequency 121.2 MHZ
Type APP Name RADAR Frequency 121.2 MHZ
Type ATIS Name ATIS Frequency 126.8 MHZ
Type GND Name GND Frequency 121.8 MHZ
Type TWR Name TWR Frequency 118.4 MHZ

 AIRPORT NEAR NAVIGATION AIDS
Type VOR-DME Name Seeb Frequency 114500 KHZ
Type NDB Name Seeb Frequency 318 KHZ



Powered by Virtual Airlines Manager [v2.6.1]